Time;durP1;ratioP1;P1;durP2;ratioP2;P2;SDS_P1;SDS_P2;PMS_P1;PMS_P2;Temp;Humidity;BMP_temperature;BMP_pressure;BME280_temperature;BME280_humidity;BME280_pressure;Samples;Min_cycle;Max_cycle;Signal;HPM_P1;HPM_P2
2023/07/12 00:00:44;;;;;;;9.55;6.07;;;;;;;19.84;80.90;94882.66;4918338;29;20239;-76
2023/07/12 00:03:11;;;;;;;10.57;5.75;;;;;;;19.87;80.99;94879.16;4913761;29;20204;-76
2023/07/12 00:05:40;;;;;;;8.55;5.40;;;;;;;19.80;81.46;94873.59;4914987;29;20694;-76
2023/07/12 00:08:16;;;;;;;10.77;5.60;;;;;;;19.78;81.24;94875.16;4926228;29;20743;-76
2023/07/12 00:10:43;;;;;;;11.18;5.38;;;;;;;19.79;81.80;94872.03;4922846;29;20203;-76
2023/07/12 00:13:11;;;;;;;13.73;5.75;;;;;;;19.80;82.55;94868.13;4913223;29;20204;-76
2023/07/12 00:15:39;;;;;;;9.85;6.85;;;;;;;19.81;82.02;94875.19;4924874;29;20548;-76
2023/07/12 00:18:12;;;;;;;12.25;6.40;;;;;;;19.76;82.96;94867.28;4920148;29;20264;-76
2023/07/12 00:20:40;;;;;;;9.65;5.75;;;;;;;19.69;83.03;94867.19;4915717;29;20282;-76
2023/07/12 00:23:08;;;;;;;9.05;5.60;;;;;;;19.66;82.73;94873.47;4913493;29;20204;-76
2023/07/12 00:25:35;;;;;;;8.38;6.13;;;;;;;19.70;83.01;94863.28;4923134;29;20414;-76
2023/07/12 00:28:02;;;;;;;8.85;5.55;;;;;;;19.75;82.35;94871.19;4913204;29;20243;-76
2023/07/12 00:30:32;;;;;;;7.20;5.13;;;;;;;19.79;83.14;94861.03;4912736;29;20193;-76
2023/07/12 00:33:03;;;;;;;9.30;5.75;;;;;;;19.69;83.99;94858.97;4912927;29;20215;-76
2023/07/12 00:35:31;;;;;;;10.60;5.68;;;;;;;19.63;84.07;94852.25;4912905;29;20257;-75
2023/07/12 00:38:01;;;;;;;9.15;5.95;;;;;;;19.51;84.63;94860.78;4912579;29;20212;-75
2023/07/12 00:41:02;;;;;;;10.98;5.80;;;;;;;19.48;84.94;94847.75;4917359;29;20235;-74
2023/07/12 00:43:35;;;;;;;12.93;5.75;;;;;;;19.42;84.56;94843.75;4915501;29;20203;-76
2023/07/12 00:46:08;;;;;;;10.75;5.78;;;;;;;19.39;84.92;94852.78;4917539;29;20208;-75
2023/07/12 00:48:34;;;;;;;8.93;5.57;;;;;;;19.42;85.17;94841.81;4918181;29;20658;-75
2023/07/12 00:51:10;;;;;;;10.05;6.07;;;;;;;19.37;84.85;94844.91;4920443;29;20257;-76
2023/07/12 00:53:38;;;;;;;10.57;6.18;;;;;;;19.32;85.46;94847.22;4913267;29;20201;-75
2023/07/12 00:56:07;;;;;;;8.95;5.80;;;;;;;19.38;85.51;94851.22;4912700;29;20208;-76
2023/07/12 00:58:40;;;;;;;10.27;5.68;;;;;;;19.45;84.84;94851.25;4912741;29;20200;-75
2023/07/12 01:01:08;;;;;;;14.15;5.45;;;;;;;19.41;84.43;94850.44;4912447;29;20581;-75
2023/07/12 01:03:38;;;;;;;8.23;5.47;;;;;;;19.40;84.40;94855.16;4912982;29;20215;-76
2023/07/12 01:06:09;;;;;;;10.68;5.57;;;;;;;19.39;84.61;94855.53;4914353;29;20560;-76
2023/07/12 01:08:41;;;;;;;6.72;5.75;;;;;;;19.40;84.33;94843.38;4921122;29;20200;-76
2023/07/12 01:11:10;;;;;;;7.78;5.20;;;;;;;19.35;84.86;94835.47;4912466;29;20219;-76
2023/07/12 01:13:39;;;;;;;9.05;5.70;;;;;;;19.36;85.46;94842.53;4914537;29;20212;-76
2023/07/12 01:16:06;;;;;;;10.07;6.50;;;;;;;19.24;85.49;94846.38;4913001;29;20295;-76
2023/07/12 01:18:32;;;;;;;8.18;5.68;;;;;;;19.14;85.90;94836.81;4912554;29;20201;-76
2023/07/12 01:21:13;;;;;;;9.55;5.70;;;;;;;19.14;85.59;94841.53;4920290;29;20662;-76
2023/07/12 01:23:41;;;;;;;7.25;5.32;;;;;;;19.20;85.61;94844.72;4907829;29;20249;-76
2023/07/12 01:26:25;;;;;;;10.50;5.65;;;;;;;19.23;85.73;94838.50;4919884;29;20710;-76
2023/07/12 01:28:55;;;;;;;11.93;5.80;;;;;;;19.26;86.13;94843.25;4914594;29;20283;-76
2023/07/12 01:31:23;;;;;;;8.10;5.68;;;;;;;19.21;86.21;94846.31;4912298;29;20217;-76
2023/07/12 01:33:50;;;;;;;9.73;6.05;;;;;;;19.19;85.73;94846.69;4912837;29;20204;-76
2023/07/12 01:36:18;;;;;;;8.02;5.82;;;;;;;19.14;85.82;94836.81;4921621;29;20562;-76
2023/07/12 01:38:46;;;;;;;13.52;6.60;;;;;;;19.27;86.04;94847.56;4913977;29;20279;-76
2023/07/12 01:41:13;;;;;;;8.73;5.57;;;;;;;19.23;86.33;94844.00;4912132;29;20236;-76
2023/07/12 01:43:40;;;;;;;8.85;5.70;;;;;;;19.19;86.60;94849.44;4916616;29;20565;-76
2023/07/12 01:46:07;;;;;;;11.00;6.60;;;;;;;19.18;86.21;94845.09;4926505;29;20774;-76
2023/07/12 01:48:34;;;;;;;8.23;5.95;;;;;;;19.24;85.72;94853.81;4913423;29;20201;-76
2023/07/12 01:51:01;;;;;;;9.48;7.35;;;;;;;19.26;85.87;94859.72;4916061;29;20212;-76
2023/07/12 01:53:31;;;;;;;9.40;5.80;;;;;;;19.22;85.99;94853.41;4926867;29;20256;-76
2023/07/12 01:55:58;;;;;;;11.60;5.70;;;;;;;19.25;85.98;94852.66;4921707;29;20235;-76
2023/07/12 01:58:25;;;;;;;9.38;5.57;;;;;;;19.23;86.49;94857.72;4915925;29;20656;-76
2023/07/12 02:00:53;;;;;;;9.23;5.95;;;;;;;19.08;86.76;94849.34;4915195;29;20370;-76
2023/07/12 02:03:20;;;;;;;8.05;5.80;;;;;;;19.01;86.99;94849.25;4915885;29;20212;-76
2023/07/12 02:05:47;;;;;;;11.60;5.88;;;;;;;19.00;87.54;94853.16;4918898;29;20208;-76
2023/07/12 02:08:15;;;;;;;9.57;6.20;;;;;;;18.94;87.93;94849.19;4915830;29;20205;-76
2023/07/12 02:10:43;;;;;;;9.13;6.40;;;;;;;18.93;88.21;94850.34;4915796;29;20212;-76
2023/07/12 02:13:10;;;;;;;9.00;5.72;;;;;;;18.93;88.16;94853.09;4914749;29;20718;-76
2023/07/12 02:15:37;;;;;;;7.57;6.20;;;;;;;18.95;87.84;94856.25;4916485;29;20254;-76
2023/07/12 02:18:05;;;;;;;10.35;6.30;;;;;;;18.94;87.71;94876.63;4919237;29;20208;-76
2023/07/12 02:20:32;;;;;;;10.32;6.32;;;;;;;18.92;87.64;94867.97;4923232;29;20244;-76
2023/07/12 02:22:59;;;;;;;9.27;6.25;;;;;;;18.93;87.73;94879.75;4915775;29;20208;-76
2023/07/12 02:25:26;;;;;;;8.98;6.32;;;;;;;18.95;87.40;94878.22;4917537;29;20272;-76
2023/07/12 02:27:54;;;;;;;10.15;6.32;;;;;;;18.93;87.22;94880.53;4920656;29;20547;-76
2023/07/12 02:30:23;;;;;;;9.05;5.97;;;;;;;18.89;87.37;94878.91;4920923;29;20204;-76
2023/07/12 02:32:50;;;;;;;11.75;6.05;;;;;;;18.91;87.54;94885.63;4915142;29;20223;-76
2023/07/12 02:35:18;;;;;;;9.00;6.57;;;;;;;18.92;87.43;94878.97;4927922;29;20661;-76
2023/07/12 02:37:45;;;;;;;8.27;6.00;;;;;;;18.88;87.52;94883.59;4922784;29;20200;-75
2023/07/12 02:40:13;;;;;;;8.73;6.22;;;;;;;18.86;87.97;94883.19;4914751;29;20201;-76
2023/07/12 02:42:40;;;;;;;10.50;6.45;;;;;;;18.85;88.06;94878.88;4926257;29;20235;-76
2023/07/12 02:45:09;;;;;;;8.63;5.85;;;;;;;18.90;87.77;94881.28;4915552;29;20679;-76
2023/07/12 02:47:36;;;;;;;9.82;6.20;;;;;;;18.93;87.75;94888.00;4915006;29;20308;-75
2023/07/12 02:50:03;;;;;;;12.25;6.05;;;;;;;19.00;87.29;94897.09;4916944;29;20581;-75
2023/07/12 02:52:30;;;;;;;9.55;5.70;;;;;;;19.01;87.06;94893.19;4925035;29;20243;-75
2023/07/12 02:54:57;;;;;;;9.85;6.15;;;;;;;19.04;86.83;94892.44;4915876;29;20256;-76
2023/07/12 02:57:24;;;;;;;11.00;6.60;;;;;;;19.03;87.04;94904.59;4922232;29;20216;-75
2023/07/12 02:59:51;;;;;;;9.52;6.40;;;;;;;19.03;86.99;94899.09;4920361;29;20658;-76
2023/07/12 03:02:19;;;;;;;10.50;6.80;;;;;;;19.09;86.94;94905.84;4921357;29;20601;-76
2023/07/12 03:04:46;;;;;;;11.18;6.90;;;;;;;19.11;86.63;94908.22;4914234;29;20582;-75
2023/07/12 03:07:13;;;;;;;8.13;6.22;;;;;;;19.14;86.50;94908.22;4917797;29;20216;-76
2023/07/12 03:09:40;;;;;;;10.02;6.47;;;;;;;19.20;86.73;94899.66;4918248;29;20599;-76
2023/07/12 03:12:08;;;;;;;11.52;7.20;;;;;;;19.21;86.76;94895.75;4920157;29;20208;-75
2023/07/12 03:14:36;;;;;;;10.30;5.80;;;;;;;19.25;86.81;94902.09;4918990;29;20204;-75
2023/07/12 03:17:03;;;;;;;9.77;6.30;;;;;;;19.50;86.36;94903.97;4914398;29;20272;-75
2023/07/12 03:19:31;;;;;;;9.38;6.47;;;;;;;19.62;85.85;94904.84;4925004;29;20248;-76
2023/07/12 03:21:58;;;;;;;12.15;6.70;;;;;;;19.76;85.28;94911.28;4918666;29;20224;-76
2023/07/12 03:24:25;;;;;;;9.93;6.80;;;;;;;20.02;84.47;94906.75;4914391;29;20257;-76
2023/07/12 03:26:52;;;;;;;14.27;7.13;;;;;;;20.29;82.44;94905.41;4925434;29;20577;-75
2023/07/12 03:29:19;;;;;;;8.38;6.43;;;;;;;20.52;82.37;94919.72;4930355;29;20294;-75
2023/07/12 03:31:45;;;;;;;12.25;6.63;;;;;;;20.91;80.81;94919.94;4918284;29;20257;-76
2023/07/12 03:34:12;;;;;;;12.77;8.52;;;;;;;21.30;78.92;94900.06;4914160;29;20201;-75
2023/07/12 03:36:40;;;;;;;10.80;6.57;;;;;;;21.71;77.44;94906.06;4923520;29;20600;-75
2023/07/12 03:39:07;;;;;;;17.50;7.53;;;;;;;22.28;74.20;94909.63;4914038;29;20640;-75
2023/07/12 03:41:34;;;;;;;14.23;7.90;;;;;;;22.96;71.94;94912.31;4916667;29;20232;-75
2023/07/12 03:44:01;;;;;;;15.52;7.40;;;;;;;23.01;70.45;94909.13;4915355;29;20738;-75
2023/07/12 03:46:27;;;;;;;10.10;6.18;;;;;;;23.43;69.32;94912.91;4924655;29;20211;-76
2023/07/12 03:48:54;;;;;;;10.93;6.65;;;;;;;24.16;67.54;94921.94;4921868;29;20284;-76
2023/07/12 03:51:22;;;;;;;9.13;6.15;;;;;;;24.67;65.19;94915.56;4913481;29;20216;-75
2023/07/12 03:53:51;;;;;;;8.63;7.10;;;;;;;24.78;64.26;94919.03;4913072;29;20197;-75
2023/07/12 03:56:18;;;;;;;11.63;6.35;;;;;;;25.73;61.56;94904.44;4918522;29;20212;-75
2023/07/12 03:58:44;;;;;;;13.50;8.50;;;;;;;26.38;59.31;94921.72;4915746;29;20536;-75
2023/07/12 04:01:12;;;;;;;11.55;7.68;;;;;;;27.17;56.86;94919.94;4924875;29;20216;-75
2023/07/12 04:03:40;;;;;;;13.20;7.68;;;;;;;27.56;55.92;94921.94;4925626;29;20215;-75
2023/07/12 04:06:09;;;;;;;8.43;7.28;;;;;;;27.83;55.32;94918.19;4918053;29;20204;-75
2023/07/12 04:08:36;;;;;;;11.05;8.20;;;;;;;28.43;53.42;94910.44;4913079;29;20212;-76
2023/07/12 04:11:06;;;;;;;13.25;8.25;;;;;;;28.79;52.05;94911.13;4907252;29;20211;-76
2023/07/12 04:13:33;;;;;;;14.70;7.78;;;;;;;29.22;50.76;94904.38;4915628;29;20214;-75
2023/07/12 04:16:01;;;;;;;10.10;8.15;;;;;;;29.38;50.26;94909.94;4914255;29;20223;-75
2023/07/12 04:18:29;;;;;;;10.10;8.48;;;;;;;30.25;47.75;94902.09;4922757;29;20552;-75
2023/07/12 04:20:58;;;;;;;9.35;8.02;;;;;;;30.19;47.92;94898.31;4920736;29;20252;-75
2023/07/12 04:23:27;;;;;;;13.88;8.88;;;;;;;30.40;47.08;94900.41;4918530;29;20330;-75
2023/07/12 04:26:01;;;;;;;13.25;9.15;;;;;;;30.70;46.40;94898.28;4916824;29;20256;-75
2023/07/12 04:28:31;;;;;;;11.90;9.32;;;;;;;30.93;45.54;94894.28;4921105;29;20746;-75
2023/07/12 04:31:03;;;;;;;14.82;9.10;;;;;;;31.48;45.27;94895.50;4912714;29;20208;-74
2023/07/12 04:33:30;;;;;;;13.23;8.50;;;;;;;31.82;45.19;94896.69;4915277;29;20293;-75
2023/07/12 04:35:57;;;;;;;13.90;9.23;;;;;;;31.83;43.85;94904.63;4912057;29;20208;-74
2023/07/12 04:38:23;;;;;;;11.80;8.90;;;;;;;32.55;42.23;94897.75;4912120;29;20208;-75
2023/07/12 04:40:54;;;;;;;19.80;9.40;;;;;;;32.95;41.73;94908.94;4916292;29;20549;-75
2023/07/12 04:43:21;;;;;;;11.57;9.20;;;;;;;33.27;41.12;94907.56;4915006;29;20231;-75
2023/07/12 04:45:50;;;;;;;13.68;9.82;;;;;;;33.01;40.89;94912.69;4925957;29;20251;-74
2023/07/12 04:48:16;;;;;;;13.15;9.75;;;;;;;32.39;42.12;94907.22;4919822;29;20205;-74
2023/07/12 04:50:44;;;;;;;13.23;9.60;;;;;;;32.48;41.65;94910.06;4913783;29;20679;-74
2023/07/12 04:53:12;;;;;;;13.43;9.73;;;;;;;32.35;41.56;94912.22;4923465;29;20594;-75
2023/07/12 04:55:38;;;;;;;11.05;9.25;;;;;;;33.09;41.53;94913.94;4924203;29;20248;-76
2023/07/12 04:58:06;;;;;;;11.68;9.35;;;;;;;34.39;38.90;94918.94;4917326;29;20272;-75
2023/07/12 05:00:33;;;;;;;12.38;9.50;;;;;;;34.55;39.07;94916.50;4912305;29;20208;-75
2023/07/12 05:03:01;;;;;;;14.75;10.35;;;;;;;34.49;38.30;94926.84;4921653;29;20464;-75
2023/07/12 05:05:28;;;;;;;13.68;10.30;;;;;;;33.82;38.73;94925.19;4914055;29;20214;-75
2023/07/12 05:07:55;;;;;;;12.65;10.18;;;;;;;34.03;38.44;94917.00;4913545;29;20200;-75
2023/07/12 05:10:22;;;;;;;16.25;10.40;;;;;;;34.31;38.39;94909.25;4921908;29;20208;-75
2023/07/12 05:12:49;;;;;;;14.00;9.68;;;;;;;35.12;36.62;94902.41;4920645;29;20200;-75
2023/07/12 05:15:16;;;;;;;11.55;9.48;;;;;;;35.81;35.72;94898.38;4917454;29;20212;-75
2023/07/12 05:17:43;;;;;;;15.35;9.23;;;;;;;36.73;34.55;94902.97;4912252;29;20703;-76
2023/07/12 05:20:13;;;;;;;13.27;9.52;;;;;;;35.33;35.68;94908.22;4911967;29;20304;-75
2023/07/12 05:22:40;;;;;;;12.10;8.82;;;;;;;35.50;35.95;94903.69;4915190;29;20275;-75
2023/07/12 05:25:08;;;;;;;13.20;9.50;;;;;;;35.72;35.15;94894.84;4913447;29;20287;-76
2023/07/12 05:27:36;;;;;;;17.23;9.77;;;;;;;36.35;34.35;94904.69;4908252;29;20663;-74
2023/07/12 05:30:04;;;;;;;13.27;8.93;;;;;;;36.29;35.12;94904.59;4922108;29;20222;-76
2023/07/12 05:32:30;;;;;;;11.32;9.15;;;;;;;36.29;35.69;94903.81;4916250;29;20656;-76
2023/07/12 05:34:57;;;;;;;14.45;9.55;;;;;;;36.84;34.50;94903.88;4916199;29;20216;-76
2023/07/12 05:37:25;;;;;;;15.20;10.65;;;;;;;36.18;34.89;94909.25;4927868;29;20216;-76
2023/07/12 05:39:52;;;;;;;10.38;9.27;;;;;;;36.60;34.57;94906.88;4924970;29;20663;-75
2023/07/12 05:42:19;;;;;;;13.75;10.13;;;;;;;34.59;37.10;94925.53;4915817;29;20547;-75
2023/07/12 05:44:46;;;;;;;12.98;10.15;;;;;;;35.91;35.56;94907.53;4925513;29;20218;-75
2023/07/12 05:47:13;;;;;;;15.57;10.45;;;;;;;34.15;39.18;94924.47;4923578;29;20580;-75
2023/07/12 05:49:40;;;;;;;13.48;10.15;;;;;;;34.74;37.37;94913.56;4921734;29;20208;-75
2023/07/12 05:52:07;;;;;;;17.80;10.45;;;;;;;34.77;36.64;94918.28;4922985;29;20212;-75
2023/07/12 05:54:35;;;;;;;12.82;10.23;;;;;;;34.71;37.43;94923.00;4928019;29;20211;-76
2023/07/12 05:57:02;;;;;;;18.13;10.60;;;;;;;32.98;40.95;94924.06;4920969;29;20621;-75
2023/07/12 05:59:29;;;;;;;16.75;10.77;;;;;;;32.56;41.68;94932.22;4920764;29;20584;-75
2023/07/12 06:01:56;;;;;;;15.75;9.90;;;;;;;34.61;39.10;94930.69;4930661;29;20258;-75
2023/07/12 06:04:23;;;;;;;15.45;10.35;;;;;;;36.09;36.91;94923.44;4925435;29;20716;-75
2023/07/12 06:06:52;;;;;;;12.43;10.07;;;;;;;34.72;37.02;94935.78;4918647;29;20208;-74
2023/07/12 06:09:19;;;;;;;15.25;9.23;;;;;;;34.75;38.22;94929.97;4916242;29;20204;-75
2023/07/12 06:11:47;;;;;;;12.00;9.73;;;;;;;35.38;36.31;94927.28;4920172;29;20204;-76
2023/07/12 06:14:14;;;;;;;14.18;10.30;;;;;;;34.38;37.43;94937.06;4921593;29;20208;-76
2023/07/12 06:16:43;;;;;;;15.43;9.90;;;;;;;33.97;38.18;94941.38;4916749;29;20256;-76
2023/07/12 06:19:09;;;;;;;15.00;9.25;;;;;;;34.95;37.06;94931.47;4925570;29;20232;-75
2023/07/12 06:21:37;;;;;;;11.20;9.15;;;;;;;36.13;35.77;94932.50;4910734;29;20196;-76
2023/07/12 06:24:05;;;;;;;12.73;8.65;;;;;;;36.41;34.79;94930.94;4918844;29;20240;-75
2023/07/12 06:26:32;;;;;;;13.35;8.32;;;;;;;36.58;34.46;94929.16;4915006;29;20244;-75
2023/07/12 06:29:01;;;;;;;12.48;8.75;;;;;;;36.98;33.86;94922.84;4924432;29;20212;-76
2023/07/12 06:31:28;;;;;;;12.02;8.82;;;;;;;37.17;34.04;94919.78;4923856;29;20663;-75
2023/07/12 06:33:56;;;;;;;14.13;8.40;;;;;;;35.75;34.69;94922.88;4916567;29;20660;-76
2023/07/12 06:36:23;;;;;;;12.18;8.63;;;;;;;37.09;33.51;94924.25;4924104;29;20317;-75
2023/07/12 06:38:49;;;;;;;10.30;8.85;;;;;;;37.69;32.87;94920.66;4923286;29;20564;-75
2023/07/12 06:41:16;;;;;;;10.48;8.75;;;;;;;37.70;31.83;94916.53;4914987;29;20205;-76
2023/07/12 06:43:43;;;;;;;10.18;8.48;;;;;;;36.95;33.24;94925.84;4915053;29;20228;-76
2023/07/12 06:46:11;;;;;;;10.23;8.02;;;;;;;37.98;32.20;94926.09;4922497;29;20259;-76
2023/07/12 06:48:38;;;;;;;15.55;8.80;;;;;;;37.34;32.61;94918.69;4919235;29;20332;-75
2023/07/12 06:51:05;;;;;;;12.82;8.68;;;;;;;38.24;32.82;94908.31;4916303;29;20212;-76
2023/07/12 06:53:32;;;;;;;12.02;8.38;;;;;;;36.99;33.07;94920.78;4928295;29;20200;-76
2023/07/12 06:55:58;;;;;;;11.65;8.57;;;;;;;36.09;34.63;94917.81;4919358;29;20256;-76
2023/07/12 06:58:25;;;;;;;11.63;7.80;;;;;;;36.31;34.23;94918.22;4914600;29;20216;-76
2023/07/12 07:00:52;;;;;;;13.15;7.28;;;;;;;36.75;34.03;94911.72;4913851;29;20299;-76
2023/07/12 07:03:20;;;;;;;10.40;7.05;;;;;;;36.90;33.29;94912.44;4923732;29;20231;-76
2023/07/12 07:05:48;;;;;;;9.38;7.68;;;;;;;37.84;33.43;94903.56;4920403;29;20284;-76
2023/07/12 07:08:19;;;;;;;9.50;7.68;;;;;;;36.85;34.09;94915.97;4913915;29;20631;-77
2023/07/12 07:10:50;;;;;;;9.98;7.50;;;;;;;36.61;33.48;94919.72;4920824;29;20274;-75
2023/07/12 07:13:16;;;;;;;8.75;7.45;;;;;;;35.94;33.93;94924.25;4913623;29;20253;-75
2023/07/12 07:15:45;;;;;;;9.85;7.68;;;;;;;33.62;38.01;94933.31;4914169;29;20619;-75
2023/07/12 07:18:12;;;;;;;11.85;7.55;;;;;;;34.19;38.09;94937.09;4914192;29;20359;-75
2023/07/12 07:20:42;;;;;;;12.93;7.82;;;;;;;34.16;37.00;94949.31;4913779;29;20617;-76
2023/07/12 07:23:09;;;;;;;10.38;8.05;;;;;;;34.47;36.44;94948.28;4914040;29;20336;-75
2023/07/12 07:25:36;;;;;;;13.68;8.50;;;;;;;35.22;35.46;94937.69;4914426;29;20271;-76
2023/07/12 07:28:03;;;;;;;8.25;7.32;;;;;;;35.47;34.75;94941.28;4914002;29;20235;-76
2023/07/12 07:30:31;;;;;;;10.23;7.90;;;;;;;36.18;34.43;94934.66;4914357;29;20217;-76
2023/07/12 07:32:58;;;;;;;10.55;7.68;;;;;;;36.19;34.82;94934.16;4914240;29;20217;-75
2023/07/12 07:35:25;;;;;;;12.15;8.13;;;;;;;36.31;34.22;94929.50;4913693;29;20204;-75
2023/07/12 07:37:54;;;;;;;10.90;8.65;;;;;;;37.21;33.92;94915.44;4914052;29;20212;-76
2023/07/12 07:40:20;;;;;;;12.10;7.90;;;;;;;35.55;36.14;94919.91;4913796;29;20726;-76
2023/07/12 07:42:47;;;;;;;11.98;8.05;;;;;;;37.04;33.86;94916.50;4914566;29;20711;-76
2023/07/12 07:45:14;;;;;;;14.75;8.48;;;;;;;36.93;34.72;94923.53;4912366;29;20668;-75
2023/07/12 07:47:41;;;;;;;12.07;8.23;;;;;;;36.61;35.03;94925.38;4916521;29;20272;-76
2023/07/12 07:50:08;;;;;;;13.55;8.48;;;;;;;35.60;37.01;94927.69;4920425;29;20211;-76
2023/07/12 07:52:35;;;;;;;11.60;8.82;;;;;;;36.00;37.39;94926.38;4913926;29;20275;-76
2023/07/12 07:55:05;;;;;;;14.75;8.93;;;;;;;35.50;36.05;94918.56;4917715;29;20271;-75
2023/07/12 07:57:32;;;;;;;13.05;8.95;;;;;;;35.37;36.70;94926.50;4919105;29;20220;-76
2023/07/12 08:00:03;;;;;;;13.65;8.82;;;;;;;35.04;36.01;94918.09;4916060;29;20204;-76
2023/07/12 08:02:30;;;;;;;15.27;9.65;;;;;;;35.13;35.79;94923.66;4920776;29;20640;-76
2023/07/12 08:04:58;;;;;;;12.57;8.90;;;;;;;34.99;37.36;94918.75;4912614;29;20648;-76
2023/07/12 08:07:25;;;;;;;11.15;8.27;;;;;;;35.63;35.73;94915.47;4913816;29;20208;-76
2023/07/12 08:09:51;;;;;;;15.75;9.15;;;;;;;35.53;36.08;94914.78;4918934;29;20204;-76
2023/07/12 08:12:20;;;;;;;15.07;8.30;;;;;;;35.59;36.72;94915.63;4917187;29;20197;-76
2023/07/12 08:14:46;;;;;;;12.88;9.68;;;;;;;35.55;35.57;94917.84;4912101;29;20213;-76
2023/07/12 08:17:13;;;;;;;15.15;9.18;;;;;;;35.49;35.63;94924.66;4911476;29;20744;-76
2023/07/12 08:19:40;;;;;;;11.90;8.77;;;;;;;34.90;37.40;94932.91;4911152;29;20303;-75
2023/07/12 08:22:07;;;;;;;13.35;9.15;;;;;;;33.29;39.78;94929.56;4911774;29;20259;-75
2023/07/12 08:24:34;;;;;;;15.02;8.80;;;;;;;33.47;41.40;94938.00;4912233;29;20243;-75
2023/07/12 08:27:00;;;;;;;13.40;9.50;;;;;;;34.27;38.56;94931.94;4913501;29;20534;-75
2023/07/12 08:29:29;;;;;;;13.13;8.73;;;;;;;34.96;38.00;94924.59;4912235;29;20306;-76
2023/07/12 08:31:55;;;;;;;13.48;9.05;;;;;;;34.35;38.59;94924.72;4914194;29;20254;-75
2023/07/12 08:34:22;;;;;;;11.98;9.27;;;;;;;34.70;39.64;94924.25;4912071;29;20283;-75
2023/07/12 08:36:49;;;;;;;13.77;9.60;;;;;;;34.63;38.50;94927.41;4912091;29;20208;-75
2023/07/12 08:39:16;;;;;;;10.00;8.20;;;;;;;34.14;39.84;94922.91;4915495;29;20211;-75
2023/07/12 08:41:42;;;;;;;12.93;9.10;;;;;;;34.01;39.29;94925.13;4912744;29;20200;-76
2023/07/12 08:44:13;;;;;;;13.40;8.65;;;;;;;34.38;38.35;94926.59;4917365;29;20299;-75
2023/07/12 08:46:47;;;;;;;12.02;8.63;;;;;;;34.44;38.43;94930.28;4918753;29;20284;-76
2023/07/12 08:49:16;;;;;;;15.05;8.48;;;;;;;34.96;38.63;94916.91;4923268;29;20288;-77
2023/07/12 08:51:43;;;;;;;13.68;9.40;;;;;;;34.33;39.09;94924.41;4923143;29;20199;-75
2023/07/12 08:54:22;;;;;;;12.55;8.52;;;;;;;34.30;39.53;94928.19;4920704;29;20204;-77
2023/07/12 08:56:49;;;;;;;10.55;8.57;;;;;;;34.41;39.36;94931.28;4921633;29;20264;-75
2023/07/12 08:59:17;;;;;;;13.88;9.52;;;;;;;33.53;40.72;94924.88;4919544;29;20827;-76
2023/07/12 09:01:49;;;;;;;12.90;8.77;;;;;;;34.26;41.68;94924.72;4919121;29;20212;-75
2023/07/12 09:04:25;;;;;;;15.93;8.82;;;;;;;34.61;38.47;94915.84;4916451;29;20224;-76
2023/07/12 09:06:54;;;;;;;13.52;8.60;;;;;;;34.99;39.48;94913.13;4909635;29;20208;-74
2023/07/12 09:09:22;;;;;;;12.68;9.18;;;;;;;34.58;40.00;94911.94;4912440;29;20604;-75
2023/07/12 09:11:48;;;;;;;11.73;8.98;;;;;;;34.08;38.75;94903.06;4911724;29;20200;-75
2023/07/12 09:14:17;;;;;;;16.77;9.73;;;;;;;34.29;38.73;94912.56;4911804;29;20200;-75
2023/07/12 09:16:48;;;;;;;9.63;8.50;;;;;;;34.14;39.33;94900.41;4911078;29;20212;-75
2023/07/12 09:19:23;;;;;;;11.40;8.35;;;;;;;33.88;39.81;94889.56;4916438;29;20232;-74
2023/07/12 09:21:51;;;;;;;10.93;8.65;;;;;;;33.47;39.60;94893.06;4922388;29;20203;-76
2023/07/12 09:24:24;;;;;;;11.70;8.15;;;;;;;34.02;40.30;94887.34;4913679;29;20319;-76
2023/07/12 09:26:51;;;;;;;11.05;7.93;;;;;;;33.66;40.73;94882.53;4925988;29;20207;-77
2023/07/12 09:29:21;;;;;;;11.15;8.82;;;;;;;32.94;40.90;94879.28;4914233;29;20284;-74
2023/07/12 09:31:51;;;;;;;10.43;9.02;;;;;;;32.30;41.85;94881.94;4914827;29;20291;-73
2023/07/12 09:34:22;;;;;;;9.50;7.88;;;;;;;32.79;40.67;94881.94;4912193;29;20216;-75
2023/07/12 09:36:56;;;;;;;13.15;8.60;;;;;;;33.53;40.48;94880.69;4911555;29;20746;-76
2023/07/12 09:39:24;;;;;;;13.40;9.13;;;;;;;33.76;40.28;94870.81;4912148;29;20274;-75
2023/07/12 09:41:56;;;;;;;10.48;7.82;;;;;;;34.17;39.24;94871.31;4911716;29;20260;-75
2023/07/12 09:44:22;;;;;;;9.55;8.23;;;;;;;34.03;40.44;94866.41;4912080;29;20616;-75
2023/07/12 09:46:54;;;;;;;9.65;8.00;;;;;;;34.80;38.32;94861.00;4911698;29;20716;-75
2023/07/12 09:49:24;;;;;;;11.88;9.10;;;;;;;35.10;38.56;94857.03;4911955;29;20216;-75
2023/07/12 09:52:01;;;;;;;14.13;8.10;;;;;;;35.12;37.33;94865.78;4911295;29;20231;-75
2023/07/12 09:54:38;;;;;;;13.15;8.10;;;;;;;34.96;37.54;94863.41;4911956;29;20647;-74
2023/07/12 09:57:12;;;;;;;9.73;7.30;;;;;;;35.61;36.54;94850.31;4912091;29;20204;-75
2023/07/12 09:59:49;;;;;;;9.38;7.75;;;;;;;35.82;35.76;94860.44;4912324;29;20256;-77
2023/07/12 10:02:32;;;;;;;12.43;8.40;;;;;;;35.55;36.19;94857.88;4912271;29;20204;-77
2023/07/12 10:05:04;;;;;;;11.55;7.38;;;;;;;35.19;37.10;94853.34;4911834;29;20316;-75
2023/07/12 10:07:47;;;;;;;9.90;8.07;;;;;;;34.75;39.31;94861.63;4912915;29;20240;-77
2023/07/12 10:10:22;;;;;;;9.38;7.63;;;;;;;33.60;37.75;94857.13;4915732;29;20216;-78
2023/07/12 10:13:02;;;;;;;16.80;7.63;;;;;;;34.34;38.54;94850.00;4915145;29;20718;-75
2023/07/12 10:15:33;;;;;;;12.02;8.00;;;;;;;34.83;37.62;94837.53;4915391;29;20231;-75
2023/07/12 10:18:01;;;;;;;11.93;7.22;;;;;;;34.38;39.13;94844.22;4915048;29;20287;-75
2023/07/12 10:20:29;;;;;;;13.60;8.43;;;;;;;34.06;38.78;94848.53;4915137;29;20307;-77
2023/07/12 10:22:56;;;;;;;10.68;7.38;;;;;;;34.40;38.69;94839.66;4915343;29;20338;-77
2023/07/12 10:25:25;;;;;;;12.60;7.78;;;;;;;34.31;39.69;94842.50;4915597;29;20236;-76
2023/07/12 10:27:58;;;;;;;6.82;5.88;;;;;;;33.81;36.67;94850.53;4914933;29;20260;-75
2023/07/12 10:30:27;;;;;;;6.68;5.75;;;;;;;33.77;36.06;94838.66;4915555;29;20211;-75
2023/07/12 10:33:02;;;;;;;7.78;5.68;;;;;;;33.97;37.06;94852.19;4914977;29;20275;-76
2023/07/12 10:35:41;;;;;;;8.63;5.75;;;;;;;34.35;36.08;94845.94;4915213;29;20259;-77
2023/07/12 10:38:14;;;;;;;11.23;5.88;;;;;;;34.66;36.11;94842.00;4914194;29;20494;-77
2023/07/12 10:40:47;;;;;;;10.25;6.05;;;;;;;34.57;37.37;94842.84;4914678;29;20343;-77
2023/07/12 10:43:20;;;;;;;7.80;6.03;;;;;;;34.36;37.90;94839.06;4913922;29;20212;-73
2023/07/12 10:45:50;;;;;;;9.30;5.78;;;;;;;34.05;35.93;94841.38;4914989;29;20687;-76
2023/07/12 10:48:25;;;;;;;8.05;5.43;;;;;;;34.49;35.88;94830.38;4915144;29;20220;-77
2023/07/12 10:50:56;;;;;;;8.95;5.75;;;;;;;34.99;36.22;94831.44;4914864;29;20251;-76
2023/07/12 10:53:25;;;;;;;10.63;5.97;;;;;;;35.17;35.58;94827.69;4914700;29;20230;-77
2023/07/12 10:56:13;;;;;;;10.38;5.90;;;;;;;34.62;35.66;94833.72;4914828;29;20224;-77
2023/07/12 10:58:50;;;;;;;9.05;6.20;;;;;;;34.34;37.38;94830.31;4914209;29;20239;-76
2023/07/12 11:01:38;;;;;;;7.22;5.72;;;;;;;34.77;36.43;94833.81;4913770;29;20609;-77
2023/07/12 11:04:11;;;;;;;8.30;5.57;;;;;;;34.83;36.11;94815.00;4914078;29;20240;-76
2023/07/12 11:06:55;;;;;;;7.18;6.20;;;;;;;35.00;35.31;94812.50;4914834;29;20279;-76
2023/07/12 11:09:24;;;;;;;8.05;5.95;;;;;;;35.36;35.51;94806.56;4914014;29;20248;-77
2023/07/12 11:11:58;;;;;;;10.55;5.65;;;;;;;35.30;34.58;94814.13;4914256;29;20248;-77
2023/07/12 11:14:45;;;;;;;8.65;5.28;;;;;;;35.57;35.08;94808.22;4914354;29;20215;-77
2023/07/12 11:17:16;;;;;;;12.38;5.47;;;;;;;34.80;35.93;94811.13;4914368;29;20676;-75
2023/07/12 11:20:02;;;;;;;7.53;5.43;;;;;;;34.47;36.18;94816.78;4913796;29;20251;-75
2023/07/12 11:22:52;;;;;;;7.03;5.93;;;;;;;34.57;36.23;94817.53;4914817;29;20311;-76
2023/07/12 11:25:27;;;;;;;7.55;5.95;;;;;;;34.66;38.01;94816.66;4913773;29;20231;-77
2023/07/12 11:27:57;;;;;;;8.70;5.72;;;;;;;35.02;36.57;94799.50;4914145;29;20235;-75
2023/07/12 11:30:39;;;;;;;6.82;5.95;;;;;;;34.83;35.51;94803.75;4914046;29;20727;-76
2023/07/12 11:33:16;;;;;;;10.70;6.22;;;;;;;34.90;36.36;94803.38;4913905;29;20672;-76
2023/07/12 11:35:47;;;;;;;16.15;5.75;;;;;;;34.96;35.60;94795.03;4913804;29;20212;-76